createdAt,value
2018-03-02T00:01:52.399Z,17.02
2018-03-02T00:04:21.155Z,16.65
2018-03-02T00:06:50.341Z,15.32
2018-03-02T00:09:20.347Z,16.73
2018-03-02T00:11:49.041Z,16.27
2018-03-02T00:14:18.120Z,17.25
2018-03-02T00:16:51.887Z,16.23
2018-03-02T00:19:20.302Z,17.90
2018-03-02T00:21:50.192Z,16.77
2018-03-02T00:24:18.822Z,15.90
2018-03-02T00:26:47.628Z,15.45
2018-03-02T00:29:17.533Z,17.85
2018-03-02T00:31:46.056Z,16.62
2018-03-02T00:34:15.070Z,13.02
2018-03-02T00:36:43.580Z,18.98
2018-03-02T00:39:13.241Z,15.77
2018-03-02T00:41:41.662Z,20.17
2018-03-02T00:44:10.710Z,17.87
2018-03-02T00:46:40.912Z,17.65
2018-03-02T00:49:10.990Z,17.60
2018-03-02T00:51:39.489Z,18.15
2018-03-02T00:54:08.315Z,16.65
2018-03-02T00:56:37.736Z,16.25
2018-03-02T00:59:06.245Z,16.17
2018-03-02T01:01:36.653Z,17.83
2018-03-02T01:04:06.742Z,15.93
2018-03-02T01:06:37.769Z,16.95
2018-03-02T01:09:06.594Z,19.00
2018-03-02T01:11:35.462Z,17.67
2018-03-02T01:14:04.653Z,18.48
2018-03-02T01:16:33.543Z,19.37
2018-03-02T01:19:02.510Z,18.12
2018-03-02T01:21:33.671Z,18.92
2018-03-02T01:24:03.097Z,17.67
2018-03-02T01:26:31.561Z,17.15
2018-03-02T01:29:02.390Z,18.65
2018-03-02T01:31:31.698Z,20.67
2018-03-02T01:34:01.635Z,17.50
2018-03-02T01:36:30.495Z,17.67
2018-03-02T01:38:59.297Z,18.15
2018-03-02T01:41:28.937Z,19.23
2018-03-02T01:43:57.787Z,18.00
2018-03-02T01:46:26.984Z,16.60
2018-03-02T01:48:55.954Z,19.05
2018-03-02T01:51:42.708Z,20.40
2018-03-02T01:54:12.452Z,18.30
2018-03-02T01:56:42.191Z,19.02
2018-03-02T01:59:11.224Z,17.92
2018-03-02T02:01:41.440Z,16.87
2018-03-02T02:04:10.317Z,18.40
2018-03-02T02:06:39.137Z,20.27
2018-03-02T02:09:07.884Z,19.75
2018-03-02T02:11:37.741Z,18.65
2018-03-02T02:14:07.306Z,18.58
2018-03-02T02:16:36.617Z,17.98
2018-03-02T02:19:05.107Z,20.40
2018-03-02T02:21:33.719Z,20.12
2018-03-02T02:24:02.304Z,18.80
2018-03-02T02:26:31.089Z,19.33
2018-03-02T02:28:59.832Z,19.42
2018-03-02T02:31:28.657Z,17.95
2018-03-02T02:33:57.746Z,20.02
2018-03-02T02:36:26.600Z,20.05
2018-03-02T02:38:55.977Z,19.62
2018-03-02T02:41:24.739Z,19.48
2018-03-02T02:43:53.552Z,20.50
2018-03-02T02:46:22.655Z,23.62
2018-03-02T02:48:51.222Z,17.95
2018-03-02T02:51:19.979Z,18.58
2018-03-02T02:53:48.783Z,17.65
2018-03-02T02:56:18.126Z,21.30
2018-03-02T02:58:47.055Z,18.90
2018-03-02T03:01:15.947Z,20.80
2018-03-02T03:03:44.945Z,20.88
2018-03-02T03:06:14.359Z,18.25
2018-03-02T03:08:42.902Z,19.05
2018-03-02T03:11:12.080Z,18.92
2018-03-02T03:13:40.891Z,22.42
2018-03-02T03:16:11.256Z,20.37
2018-03-02T03:18:41.600Z,18.92
2018-03-02T03:21:10.049Z,19.12
2018-03-02T03:23:39.772Z,19.02
2018-03-02T03:26:08.747Z,19.85
2018-03-02T03:28:38.174Z,18.10
2018-03-02T03:31:08.779Z,18.98
2018-03-02T03:33:37.252Z,16.70
2018-03-02T03:36:06.432Z,19.37
2018-03-02T03:38:36.201Z,17.42
2018-03-02T03:41:05.977Z,20.58
2018-03-02T03:43:34.382Z,19.30
2018-03-02T03:46:03.720Z,21.45
2018-03-02T03:48:32.441Z,19.35
2018-03-02T03:51:01.608Z,19.75
2018-03-02T03:53:30.287Z,18.17
2018-03-02T03:55:58.885Z,20.15
2018-03-02T03:58:27.738Z,17.95
2018-03-02T04:00:56.155Z,16.98
2018-03-02T04:03:27.616Z,19.62
2018-03-02T04:05:56.603Z,20.08
2018-03-02T04:08:26.741Z,19.83
2018-03-02T04:10:57.606Z,20.17
2018-03-02T04:13:26.007Z,18.65
2018-03-02T04:15:55.666Z,19.30
2018-03-02T04:18:24.972Z,18.95
2018-03-02T04:20:56.466Z,19.40
2018-03-02T04:23:26.552Z,19.60
2018-03-02T04:25:54.972Z,18.33
2018-03-02T04:28:24.604Z,15.52
2018-03-02T04:30:53.022Z,21.33
2018-03-02T04:33:22.952Z,20.40
2018-03-02T04:35:51.377Z,19.83
2018-03-02T04:38:20.204Z,18.87
2018-03-02T04:40:50.022Z,21.65
2018-03-02T04:43:18.728Z,16.27
2018-03-02T04:45:48.116Z,20.60
2018-03-02T04:48:17.231Z,21.25
2018-03-02T04:50:45.700Z,20.25
2018-03-02T04:53:14.689Z,19.10
2018-03-02T04:55:43.214Z,19.73
2018-03-02T04:58:13.573Z,20.58
2018-03-02T05:00:42.349Z,18.45
2018-03-02T05:03:12.917Z,20.52
2018-03-02T05:05:43.064Z,21.12
2018-03-02T05:08:11.510Z,19.65
2018-03-02T05:10:40.377Z,19.08
2018-03-02T05:13:08.999Z,19.95
2018-03-02T05:15:37.697Z,21.40
2018-03-02T05:18:07.971Z,19.50
2018-03-02T05:20:37.166Z,19.30
2018-03-02T05:23:06.180Z,19.85
2018-03-02T05:25:36.510Z,20.62
2018-03-02T05:28:05.073Z,21.45
2018-03-02T05:30:34.179Z,21.17
2018-03-02T05:33:02.954Z,20.37
2018-03-02T05:35:32.235Z,19.83
2018-03-02T05:38:02.007Z,22.00
2018-03-02T05:40:30.957Z,21.55
2018-03-02T05:43:05.512Z,20.80
2018-03-02T05:45:34.338Z,19.55
2018-03-02T05:48:07.177Z,19.33
2018-03-02T05:50:35.933Z,19.05
2018-03-02T05:53:04.371Z,20.60
2018-03-02T05:55:33.215Z,22.87
2018-03-02T05:58:02.408Z,20.75
2018-03-02T06:00:33.981Z,20.12
2018-03-02T06:03:03.925Z,20.52
2018-03-02T06:05:32.363Z,24.08
2018-03-02T06:08:01.259Z,22.92
2018-03-02T06:10:30.895Z,21.23
2018-03-02T06:13:00.736Z,20.35
2018-03-02T06:15:31.262Z,19.92
2018-03-02T06:18:00.087Z,20.73
2018-03-02T06:20:29.357Z,19.98
2018-03-02T06:22:58.663Z,22.13
2018-03-02T06:25:28.964Z,23.02
2018-03-02T06:27:59.589Z,20.10
2018-03-02T06:30:28.428Z,21.12
2018-03-02T06:32:58.310Z,20.48
2018-03-02T06:35:27.119Z,23.30
2018-03-02T06:37:55.525Z,22.80
2018-03-02T06:40:26.596Z,23.83
2018-03-02T06:42:55.466Z,24.30
2018-03-02T06:45:25.069Z,26.87
2018-03-02T06:47:55.408Z,24.20
2018-03-02T06:50:23.821Z,22.52
2018-03-02T06:52:53.089Z,25.27
2018-03-02T06:55:22.002Z,23.27
2018-03-02T06:57:50.725Z,27.50
2018-03-02T07:00:19.524Z,25.55
2018-03-02T07:02:48.030Z,28.40
2018-03-02T07:05:17.339Z,26.62
2018-03-02T07:07:46.096Z,27.42
2018-03-02T07:10:15.377Z,25.77
2018-03-02T07:12:45.454Z,26.10
2018-03-02T07:15:13.882Z,26.10
2018-03-02T07:17:43.507Z,27.20
2018-03-02T07:20:12.283Z,28.00
2018-03-02T07:22:41.623Z,30.63
2018-03-02T07:25:11.789Z,26.50
2018-03-02T07:27:40.377Z,30.27
2018-03-02T07:30:10.043Z,28.70
2018-03-02T07:32:38.490Z,29.37
2018-03-02T07:35:07.261Z,28.63
2018-03-02T07:37:36.703Z,29.67
2018-03-02T07:40:05.942Z,29.63
2018-03-02T07:42:35.602Z,30.60
2018-03-02T07:45:04.380Z,32.30
2018-03-02T07:47:33.171Z,31.90
2018-03-02T07:50:02.079Z,34.43
2018-03-02T07:52:31.074Z,31.20
2018-03-02T07:55:01.111Z,34.40
2018-03-02T07:57:29.486Z,33.03
2018-03-02T07:59:58.770Z,34.17
2018-03-02T08:02:27.880Z,33.23
2018-03-02T08:04:56.663Z,33.97
2018-03-02T08:07:26.381Z,31.90
2018-03-02T08:09:56.991Z,32.40
2018-03-02T08:12:28.174Z,33.30
2018-03-02T08:14:56.889Z,31.90
2018-03-02T08:17:27.782Z,34.27
2018-03-02T08:19:56.527Z,33.67
2018-03-02T08:22:25.228Z,33.43
2018-03-02T08:24:54.411Z,32.43
2018-03-02T08:27:23.330Z,32.40
2018-03-02T08:29:52.606Z,31.40
2018-03-02T08:32:20.968Z,34.07
2018-03-02T08:50:18.779Z,33.33
2018-03-02T08:52:49.669Z,33.67
2018-03-02T08:55:19.597Z,35.63
2018-03-02T08:57:48.047Z,34.50
2018-03-02T09:00:16.394Z,35.40
2018-03-02T09:02:44.777Z,36.33
2018-03-02T09:05:13.185Z,35.13
2018-03-02T09:07:41.546Z,33.67
2018-03-02T09:10:10.133Z,35.07
2018-03-02T09:12:38.489Z,33.57
2018-03-02T09:15:07.273Z,35.90
2018-03-02T09:17:36.052Z,33.10
2018-03-02T09:20:04.805Z,33.03
2018-03-02T09:22:33.168Z,34.83
2018-03-02T09:25:01.595Z,35.57
2018-03-02T09:27:30.432Z,36.67
2018-03-02T09:29:58.831Z,34.33
2018-03-02T09:32:27.526Z,32.10
2018-03-02T09:34:55.945Z,34.63
2018-03-02T09:37:24.745Z,32.77
2018-03-02T09:39:53.137Z,33.20
2018-03-02T09:42:21.500Z,33.37
2018-03-02T09:44:49.859Z,35.03
2018-03-02T09:47:18.630Z,32.57
2018-03-02T09:49:46.989Z,33.83
2018-03-02T09:52:15.496Z,33.20
2018-03-02T09:54:43.876Z,34.10
2018-03-02T09:57:12.243Z,33.67
2018-03-02T09:59:40.632Z,34.00
2018-03-02T10:02:08.985Z,33.30
2018-03-02T10:04:37.364Z,33.17
2018-03-02T10:07:05.744Z,31.40
2018-03-02T10:09:34.107Z,29.60
2018-03-02T10:12:02.497Z,32.10
2018-03-02T10:14:30.879Z,36.40
2018-03-02T10:16:59.272Z,32.00
2018-03-02T10:19:27.652Z,30.17
2018-03-02T10:21:56.009Z,32.40
2018-03-02T10:24:24.387Z,31.97
2018-03-02T10:26:52.752Z,28.87
2018-03-02T10:29:21.127Z,29.90
2018-03-02T10:31:49.508Z,29.53
2018-03-02T10:34:17.881Z,29.83
2018-03-02T10:36:46.295Z,28.90
2018-03-02T10:39:14.640Z,30.50
2018-03-02T10:41:43.018Z,30.50
2018-03-02T10:44:11.423Z,30.30
2018-03-02T10:46:39.797Z,28.17
2018-03-02T10:49:08.192Z,29.57
2018-03-02T10:51:36.557Z,28.70
2018-03-02T10:54:04.929Z,30.20
2018-03-02T10:56:33.310Z,29.20
2018-03-02T10:59:01.679Z,27.40
2018-03-02T11:01:30.048Z,29.77
2018-03-02T11:04:01.200Z,27.43
2018-03-02T11:06:29.640Z,26.83
2018-03-02T11:08:58.395Z,26.27
2018-03-02T11:11:26.771Z,28.30
2018-03-02T11:13:55.139Z,27.23
2018-03-02T11:16:23.513Z,27.00
2018-03-02T11:18:51.873Z,26.20
2018-03-02T11:21:20.237Z,26.90
2018-03-02T11:23:48.626Z,24.77
2018-03-02T11:26:16.997Z,28.27
2018-03-02T11:28:45.352Z,26.17
2018-03-02T11:31:14.177Z,26.40
2018-03-02T11:33:42.539Z,24.37
2018-03-02T11:36:10.899Z,24.50
2018-03-02T11:38:39.647Z,27.50
2018-03-02T11:41:08.053Z,24.43
2018-03-02T11:43:36.413Z,26.30
2018-03-02T11:46:04.794Z,24.23
2018-03-02T11:48:33.156Z,23.73
2018-03-02T11:51:01.512Z,22.53
2018-03-02T11:53:29.879Z,21.23
2018-03-02T11:55:58.280Z,23.03
2018-03-02T11:58:26.665Z,22.67
2018-03-02T12:00:55.039Z,21.73
2018-03-02T12:03:23.422Z,22.37
2018-03-02T12:05:51.799Z,23.97
2018-03-02T12:08:20.168Z,22.43
2018-03-02T12:10:48.561Z,22.40
2018-03-02T12:13:17.472Z,21.13
2018-03-02T12:15:45.925Z,22.40
2018-03-02T12:18:14.308Z,20.50
2018-03-02T12:20:42.684Z,22.67
2018-03-02T12:23:11.086Z,22.90
2018-03-02T12:25:39.534Z,22.43
2018-03-02T12:28:07.908Z,21.43
2018-03-02T12:30:36.287Z,21.83
2018-03-02T12:33:04.668Z,23.10
2018-03-02T12:35:33.108Z,21.10
2018-03-02T12:38:01.526Z,21.37
2018-03-02T12:40:29.903Z,21.10
2018-03-02T12:42:58.283Z,23.23
2018-03-02T12:45:26.679Z,22.40
2018-03-02T12:47:55.072Z,21.70
2018-03-02T12:50:23.744Z,22.67
2018-03-02T12:52:52.123Z,23.20
2018-03-02T12:55:20.588Z,23.97
2018-03-02T12:57:48.968Z,26.50
2018-03-02T13:00:17.340Z,23.03
2018-03-02T13:02:45.727Z,24.27
2018-03-02T13:05:14.120Z,27.50
2018-03-02T13:07:42.502Z,24.63
2018-03-02T13:10:10.860Z,25.50
2018-03-02T13:12:39.233Z,25.10
2018-03-02T13:15:07.637Z,23.70
2018-03-02T13:17:36.060Z,25.00
2018-03-02T13:20:04.469Z,27.63
2018-03-02T13:22:41.048Z,24.13
2018-03-02T13:25:09.416Z,25.17
2018-03-02T13:27:55.449Z,26.27
2018-03-02T13:30:23.830Z,24.33
2018-03-02T13:33:09.796Z,28.27
2018-03-02T13:35:38.175Z,26.30
2018-03-02T13:38:06.547Z,27.03
2018-03-02T13:40:52.582Z,29.53
2018-03-02T13:43:21.020Z,26.87
2018-03-02T13:45:49.406Z,26.23
2018-03-02T13:48:44.341Z,26.80
2018-03-02T13:51:12.741Z,27.47
2018-03-02T13:53:41.120Z,28.00
2018-03-02T13:56:09.482Z,25.47
2018-03-02T13:58:37.848Z,24.37
2018-03-02T14:01:06.224Z,25.13
2018-03-02T14:03:52.124Z,27.33
2018-03-02T14:06:20.509Z,25.13
2018-03-02T14:08:48.872Z,26.63
2018-03-02T14:11:17.252Z,29.07
2018-03-02T14:13:45.779Z,26.60
2018-03-02T14:16:14.171Z,27.30
2018-03-02T14:18:42.561Z,24.20
2018-03-02T14:21:10.945Z,27.20
2018-03-02T14:23:39.387Z,28.50
2018-03-02T14:26:08.161Z,27.37
2018-03-02T14:28:36.526Z,25.33
2018-03-02T14:31:06.453Z,23.57
2018-03-02T14:33:34.812Z,25.20
2018-03-02T14:36:03.310Z,25.20
2018-03-02T14:38:31.667Z,27.43
2018-03-02T14:41:00.053Z,25.83
2018-03-02T14:43:28.423Z,25.70
2018-03-02T14:45:56.808Z,26.40
2018-03-02T14:48:25.206Z,26.00
2018-03-02T14:50:53.581Z,26.40
2018-03-02T14:53:21.959Z,27.43
2018-03-02T14:55:50.325Z,25.13
2018-03-02T14:58:18.685Z,23.17
2018-03-02T15:00:47.067Z,24.47
2018-03-02T15:03:15.604Z,24.57
2018-03-02T15:05:44.047Z,23.70
2018-03-02T15:08:12.423Z,28.50
2018-03-02T15:10:40.820Z,25.57
2018-03-02T15:13:09.181Z,27.73
2018-03-02T15:15:37.572Z,25.90
2018-03-02T15:18:05.986Z,25.47
2018-03-02T15:20:34.798Z,27.60
2018-03-02T15:23:03.213Z,25.90
2018-03-02T15:25:31.671Z,26.77
2018-03-02T15:28:00.046Z,26.10
2018-03-02T15:30:28.435Z,23.23
2018-03-02T15:32:56.798Z,25.00
2018-03-02T15:35:25.176Z,24.80
2018-03-02T15:37:53.537Z,24.83
2018-03-02T15:40:21.919Z,22.30
2018-03-02T15:42:50.363Z,22.30
2018-03-02T15:45:18.672Z,24.80
2018-03-02T15:47:47.441Z,23.20
2018-03-02T15:50:16.310Z,24.40
2018-03-02T15:52:44.678Z,22.20
2018-03-02T15:55:13.063Z,23.03
2018-03-02T15:57:41.459Z,19.47
2018-03-02T16:00:09.828Z,23.63
2018-03-02T16:02:38.191Z,22.67
2018-03-02T16:05:06.580Z,21.10
2018-03-02T16:07:35.033Z,22.30
2018-03-02T16:10:03.393Z,21.03
2018-03-02T16:12:31.782Z,21.00
2018-03-02T16:15:00.149Z,20.57
2018-03-02T16:17:28.579Z,20.57
2018-03-02T16:19:56.981Z,22.23
2018-03-02T16:22:25.736Z,21.33
2018-03-02T16:24:54.163Z,20.03
2018-03-02T16:27:22.939Z,22.70
2018-03-02T16:29:51.731Z,20.10
2018-03-02T16:32:20.271Z,21.43
2018-03-02T16:34:48.665Z,20.75
2018-03-02T16:37:17.038Z,20.73
2018-03-02T16:39:45.501Z,20.50
2018-03-02T16:42:14.072Z,21.42
2018-03-02T16:44:42.450Z,20.13
2018-03-02T16:47:10.831Z,20.42
2018-03-02T16:49:39.292Z,20.03
2018-03-02T16:52:07.694Z,19.47
2018-03-02T16:54:36.095Z,18.58
2018-03-02T16:57:04.488Z,20.33
2018-03-02T16:59:32.888Z,18.77
2018-03-02T17:02:01.300Z,18.15
2018-03-02T17:04:29.701Z,19.10
2018-03-02T17:06:58.093Z,20.07
2018-03-02T17:09:26.464Z,18.70
2018-03-02T17:11:54.863Z,17.95
2018-03-02T17:14:23.673Z,18.65
2018-03-02T17:16:52.485Z,17.30
2018-03-02T17:19:20.893Z,20.40
2018-03-02T17:21:49.335Z,19.95
2018-03-02T17:24:17.769Z,18.67
2018-03-02T17:26:46.570Z,18.87
2018-03-02T17:29:15.383Z,18.95
2018-03-02T17:31:43.859Z,18.75
2018-03-02T17:34:12.287Z,16.27
2018-03-02T17:36:40.687Z,17.05
2018-03-02T17:39:09.096Z,18.65
2018-03-02T17:41:37.860Z,19.20
2018-03-02T17:44:06.276Z,19.70
2018-03-02T17:46:34.716Z,18.42
2018-03-02T17:49:03.524Z,19.12
2018-03-02T17:51:32.320Z,17.90
2018-03-02T17:54:00.714Z,18.95
2018-03-02T17:56:29.171Z,20.02
2018-03-02T17:58:57.567Z,20.65
2018-03-02T18:01:25.946Z,19.62
2018-03-02T18:03:54.366Z,17.92
2018-03-02T18:06:22.974Z,17.50
2018-03-02T18:08:51.386Z,18.12
2018-03-02T18:11:19.833Z,17.85
2018-03-02T18:13:48.628Z,20.10
2018-03-02T18:16:17.439Z,20.05
2018-03-02T18:18:46.024Z,19.65
2018-03-02T18:21:14.428Z,19.23
2018-03-02T18:23:42.823Z,20.55
2018-03-02T18:26:11.225Z,20.42
2018-03-02T18:28:39.664Z,21.45
2018-03-02T18:31:08.070Z,20.88
2018-03-02T18:33:36.489Z,18.95
2018-03-02T18:36:05.299Z,17.70
2018-03-02T18:38:33.721Z,20.05
2018-03-02T18:41:02.132Z,20.65
2018-03-02T18:43:30.929Z,19.02
2018-03-02T18:45:59.322Z,21.60
2018-03-02T18:48:27.768Z,20.48
2018-03-02T18:50:56.559Z,22.02
2018-03-02T18:53:25.414Z,23.75
2018-03-02T18:55:53.806Z,23.02
2018-03-02T18:58:22.210Z,22.40
2018-03-02T19:00:50.615Z,22.25
2018-03-02T19:03:19.041Z,22.85
2018-03-02T19:05:47.454Z,20.00
2018-03-02T19:08:16.341Z,20.88
2018-03-02T19:10:45.206Z,21.98
2018-03-02T19:13:13.602Z,20.42
2018-03-02T19:15:42.005Z,27.15
2018-03-02T19:18:10.811Z,22.87
2018-03-02T19:20:39.208Z,23.42
2018-03-02T19:23:07.621Z,22.85
2018-03-02T19:25:36.031Z,22.50
2018-03-02T19:28:04.433Z,25.67
2018-03-02T19:30:32.831Z,21.70
2018-03-02T19:33:01.238Z,24.73
2018-03-02T19:35:29.633Z,24.87
2018-03-02T19:37:58.031Z,20.80
2018-03-02T19:40:26.444Z,21.40
2018-03-02T19:42:54.840Z,23.87
2018-03-02T19:45:23.236Z,22.85
2018-03-02T19:47:51.654Z,22.92
2018-03-02T19:50:20.063Z,22.80
2018-03-02T19:52:48.468Z,24.08
2018-03-02T19:55:16.868Z,22.30
2018-03-02T19:57:46.169Z,22.75
2018-03-02T20:00:14.569Z,22.85
2018-03-02T20:02:42.994Z,22.33
2018-03-02T20:05:11.531Z,25.75
2018-03-02T20:07:39.948Z,23.70
2018-03-02T20:10:08.524Z,23.67
2018-03-02T20:12:36.957Z,23.75
2018-03-02T20:15:05.763Z,25.37
2018-03-02T20:17:34.223Z,24.95
2018-03-02T20:20:02.594Z,25.17
2018-03-02T20:22:31.165Z,27.42
2018-03-02T20:24:59.565Z,24.23
2018-03-02T20:27:28.388Z,25.90
2018-03-02T20:29:56.770Z,25.88
2018-03-02T20:32:25.202Z,27.83
2018-03-02T20:34:53.680Z,23.80
2018-03-02T20:37:22.103Z,28.20
2018-03-02T20:39:50.504Z,25.88
2018-03-02T20:42:18.916Z,26.52
2018-03-02T20:44:47.326Z,26.10
2018-03-02T20:47:15.765Z,28.33
2018-03-02T20:49:44.168Z,26.35
2018-03-02T20:52:13.074Z,29.48
2018-03-02T20:54:41.880Z,26.02
2018-03-02T20:57:10.315Z,29.15
2018-03-02T20:59:38.726Z,25.30
2018-03-02T21:02:07.589Z,27.45
2018-03-02T21:04:36.924Z,27.52
2018-03-02T21:07:05.562Z,26.30
2018-03-02T21:09:34.958Z,26.73
2018-03-02T21:12:04.795Z,27.92
2018-03-02T21:14:34.640Z,25.77
2018-03-02T21:17:03.408Z,25.45
2018-03-02T21:19:32.336Z,27.52
2018-03-02T21:22:01.282Z,27.90
2018-03-02T21:24:29.719Z,26.45
2018-03-02T21:26:58.515Z,25.58
2018-03-02T21:29:27.108Z,26.60
2018-03-02T21:31:55.524Z,26.52
2018-03-02T21:34:24.345Z,26.95
2018-03-02T21:36:52.849Z,28.58
2018-03-02T21:39:21.251Z,25.62
2018-03-02T21:41:49.672Z,26.55
2018-03-02T21:44:18.076Z,28.77
2018-03-02T21:46:46.499Z,23.08
2018-03-02T21:49:15.127Z,26.20
2018-03-02T21:51:43.621Z,24.48
2018-03-02T21:54:12.034Z,27.73
2018-03-02T21:56:40.480Z,27.15
2018-03-02T21:59:09.037Z,26.08
2018-03-02T22:01:38.096Z,24.95
2018-03-02T22:04:06.637Z,25.60
2018-03-02T22:06:36.530Z,25.73
2018-03-02T22:09:05.861Z,24.37
2018-03-02T22:11:34.717Z,25.50
2018-03-02T22:14:04.874Z,26.00
2018-03-02T22:16:33.723Z,25.23
2018-03-02T22:19:03.578Z,25.85
2018-03-02T22:21:32.021Z,27.08
2018-03-02T22:24:00.426Z,23.45
2018-03-02T22:26:28.930Z,24.75
2018-03-02T22:28:58.313Z,24.67
2018-03-02T22:31:26.817Z,24.20
2018-03-02T22:33:55.449Z,23.10
2018-03-02T22:36:24.343Z,25.05
2018-03-02T22:38:53.037Z,24.58
2018-03-02T22:41:21.448Z,23.73
2018-03-02T22:43:49.882Z,25.75
2018-03-02T22:46:18.686Z,25.95
2018-03-02T22:48:47.152Z,25.85
2018-03-02T22:51:16.281Z,25.15
2018-03-02T22:53:44.719Z,27.60
2018-03-02T22:56:13.128Z,24.83
2018-03-02T22:58:41.528Z,24.80
2018-03-02T23:01:13.046Z,27.30
2018-03-02T23:03:41.565Z,25.08
2018-03-02T23:06:10.423Z,24.15
2018-03-02T23:08:39.036Z,25.25
2018-03-02T23:11:07.827Z,24.60
2018-03-02T23:13:36.531Z,27.95
2018-03-02T23:16:04.966Z,25.90
2018-03-02T23:18:34.879Z,25.52
2018-03-02T23:21:04.307Z,25.67
2018-03-02T23:23:34.443Z,25.70
2018-03-02T23:26:04.165Z,25.90
2018-03-02T23:28:32.677Z,25.05
2018-03-02T23:31:02.848Z,24.67
2018-03-02T23:33:33.153Z,27.05
2018-03-02T23:36:03.634Z,28.27
2018-03-02T23:38:32.636Z,27.50
2018-03-02T23:41:01.081Z,25.45
2018-03-02T23:43:31.616Z,27.02
2018-03-02T23:46:01.465Z,24.67
2018-03-02T23:48:30.540Z,24.70
2018-03-02T23:51:01.090Z,25.25
2018-03-02T23:53:31.025Z,26.00
2018-03-02T23:55:59.650Z,25.48
2018-03-02T23:58:28.066Z,24.27
